This is the latest recevied weather packets stored in our database for station/object MMMX. If no packets are shown the sender has not sent any weather packets the latest 10 day(s).
| Time | Temp. | Humidity | Pressure | Rain* | Wind** | Luminosity | Snow |
|---|---|---|---|---|---|---|---|
| 1777856632 | 16.67° C | 72% | 1026.4 hPa | - | - | - | - |
| 1777856032 | 18.89° C | 59% | 1025.7 hPa | - | - | - | - |
| 1777855429 | 18.89° C | 59% | 1025.7 hPa | - | - | - | - |
| 1777854835 | 18.89° C | 55% | 1024.4 hPa | - | - | - | - |
| 1777854228 | 17.78° C | 63% | 1024 hPa | - | - | - | - |
| 1777853626 | 17.78° C | 63% | 1024 hPa | - | - | - | - |
| 1777853030 | 17.78° C | 63% | 1024 hPa | - | - | - | - |
| 1777852429 | 17.78° C | 63% | 1024 hPa | - | - | - | - |
| 1777851827 | 17.78° C | 63% | 1024 hPa | - | - | - | - |
| 1777851230 | 17.78° C | 63% | 1024 hPa | - | - | - | - |
| 1777850631 | 20° C | 52% | 1024.7 hPa | - | - | - | - |
| 1777850029 | 20° C | 52% | 1024.7 hPa | - | - | - | - |
| 1777849431 | 20.56° C | 43% | 1024.4 hPa | - | - | - | - |
| 1777848829 | 21.67° C | 37% | 1024 hPa | - | - | - | - |
| 1777848229 | 23.89° C | 38% | 1024.4 hPa | - | - | - | - |
| 1777847632 | 23.89° C | 38% | 1024.4 hPa | - | - | - | - |
| 1777847028 | 23.89° C | 38% | 1023 hPa | - | - | - | - |
| 1777846424 | 23.89° C | 38% | 1023 hPa | - | - | - | - |
| 1777845828 | 25° C | 36% | 1023.4 hPa | - | - | - | - |
| 1777845227 | 25.56° C | 31% | 1023.4 hPa | - | - | - | - |
| 1777844630 | 25.56° C | 31% | 1023.4 hPa | - | - | - | - |
| 1777844027 | 25.56° C | 34% | 1023.7 hPa | - | - | - | - |
| 1777843428 | 25.56° C | 34% | 1023.7 hPa | - | - | - | - |
| 1777842827 | 25° C | 36% | 1023.7 hPa | - | - | - | - |
| 1777842228 | 25.56° C | 31% | 1024 hPa | - | - | - | - |
* Rain since midnight (hover to see other rain measurements)
** Current wind speed in m/s (hover to see current wind gust speed)